sensor_id;sensor_type;location;lat;lon;timestamp;temperature;humidity
66035;HTU21D;52805;51.074;5.842;2022-07-06T00:01:42;17.26;57.51
66035;HTU21D;52805;51.074;5.842;2022-07-06T00:04:08;17.19;57.72
66035;HTU21D;52805;51.074;5.842;2022-07-06T00:06:34;17.14;57.97
66035;HTU21D;52805;51.074;5.842;2022-07-06T00:09:00;17.09;58.20
66035;HTU21D;52805;51.074;5.842;2022-07-06T00:11:26;17.07;58.32
66035;HTU21D;52805;51.074;5.842;2022-07-06T00:13:52;17.02;58.54
66035;HTU21D;52805;51.074;5.842;2022-07-06T00:16:18;17.00;58.67
66035;HTU21D;52805;51.074;5.842;2022-07-06T00:18:44;16.94;58.83
66035;HTU21D;52805;51.074;5.842;2022-07-06T00:21:10;16.91;59.01
66035;HTU21D;52805;51.074;5.842;2022-07-06T00:23:35;16.88;59.17
66035;HTU21D;52805;51.074;5.842;2022-07-06T00:26:02;16.87;59.37
66035;HTU21D;52805;51.074;5.842;2022-07-06T00:28:28;16.81;59.61
66035;HTU21D;52805;51.074;5.842;2022-07-06T00:30:54;16.82;59.67
66035;HTU21D;52805;51.074;5.842;2022-07-06T00:33:21;16.79;59.86
66035;HTU21D;52805;51.074;5.842;2022-07-06T00:35:47;16.77;59.90
66035;HTU21D;52805;51.074;5.842;2022-07-06T00:38:12;16.74;59.96
66035;HTU21D;52805;51.074;5.842;2022-07-06T00:40:39;16.69;60.15
66035;HTU21D;52805;51.074;5.842;2022-07-06T00:43:05;16.65;60.32
66035;HTU21D;52805;51.074;5.842;2022-07-06T00:45:32;16.62;60.56
66035;HTU21D;52805;51.074;5.842;2022-07-06T00:47:57;16.62;60.61
66035;HTU21D;52805;51.074;5.842;2022-07-06T00:50:23;16.58;60.70
66035;HTU21D;52805;51.074;5.842;2022-07-06T00:52:52;16.49;61.64
66035;HTU21D;52805;51.074;5.842;2022-07-06T00:55:25;16.44;61.14
66035;HTU21D;52805;51.074;5.842;2022-07-06T00:57:51;16.41;61.27
66035;HTU21D;52805;51.074;5.842;2022-07-06T01:00:20;16.41;61.29
66035;HTU21D;52805;51.074;5.842;2022-07-06T01:02:46;16.39;61.41
66035;HTU21D;52805;51.074;5.842;2022-07-06T01:05:14;16.35;61.55
66035;HTU21D;52805;51.074;5.842;2022-07-06T01:07:43;16.32;61.63
66035;HTU21D;52805;51.074;5.842;2022-07-06T01:10:11;16.32;61.60
66035;HTU21D;52805;51.074;5.842;2022-07-06T01:12:39;16.31;61.68
66035;HTU21D;52805;51.074;5.842;2022-07-06T01:15:09;16.29;61.66
66035;HTU21D;52805;51.074;5.842;2022-07-06T01:17:35;16.26;61.72
66035;HTU21D;52805;51.074;5.842;2022-07-06T01:20:14;16.21;61.88
66035;HTU21D;52805;51.074;5.842;2022-07-06T01:22:42;16.19;61.99
66035;HTU21D;52805;51.074;5.842;2022-07-06T01:25:09;16.12;62.18
66035;HTU21D;52805;51.074;5.842;2022-07-06T01:27:37;16.08;62.28
66035;HTU21D;52805;51.074;5.842;2022-07-06T01:30:12;16.03;62.45
66035;HTU21D;52805;51.074;5.842;2022-07-06T01:32:39;15.99;62.67
66035;HTU21D;52805;51.074;5.842;2022-07-06T01:35:07;15.91;62.92
66035;HTU21D;52805;51.074;5.842;2022-07-06T01:37:33;15.88;63.05
66035;HTU21D;52805;51.074;5.842;2022-07-06T01:40:00;15.87;63.09
66035;HTU21D;52805;51.074;5.842;2022-07-06T01:42:27;15.85;63.15
66035;HTU21D;52805;51.074;5.842;2022-07-06T01:44:53;15.84;63.26
66035;HTU21D;52805;51.074;5.842;2022-07-06T01:47:20;15.82;63.37
66035;HTU21D;52805;51.074;5.842;2022-07-06T01:49:47;15.81;63.41
66035;HTU21D;52805;51.074;5.842;2022-07-06T01:52:13;15.76;63.50
66035;HTU21D;52805;51.074;5.842;2022-07-06T01:54:38;15.73;63.69
66035;HTU21D;52805;51.074;5.842;2022-07-06T01:57:04;15.67;63.88
66035;HTU21D;52805;51.074;5.842;2022-07-06T01:59:30;15.63;63.98
66035;HTU21D;52805;51.074;5.842;2022-07-06T02:01:56;15.60;64.17
66035;HTU21D;52805;51.074;5.842;2022-07-06T02:04:22;15.61;64.20
66035;HTU21D;52805;51.074;5.842;2022-07-06T02:06:48;15.62;64.23
66035;HTU21D;52805;51.074;5.842;2022-07-06T02:09:13;15.61;64.30
66035;HTU21D;52805;51.074;5.842;2022-07-06T02:11:39;15.59;64.43
66035;HTU21D;52805;51.074;5.842;2022-07-06T02:14:05;15.56;64.64
66035;HTU21D;52805;51.074;5.842;2022-07-06T02:16:31;15.53;64.77
66035;HTU21D;52805;51.074;5.842;2022-07-06T02:18:57;15.52;64.87
66035;HTU21D;52805;51.074;5.842;2022-07-06T02:21:22;15.49;64.98
66035;HTU21D;52805;51.074;5.842;2022-07-06T02:23:48;15.46;65.04
66035;HTU21D;52805;51.074;5.842;2022-07-06T02:26:15;15.43;65.15
66035;HTU21D;52805;51.074;5.842;2022-07-06T02:28:41;15.41;65.29
66035;HTU21D;52805;51.074;5.842;2022-07-06T02:31:06;15.41;65.32
66035;HTU21D;52805;51.074;5.842;2022-07-06T02:33:32;15.39;65.46
66035;HTU21D;52805;51.074;5.842;2022-07-06T02:35:58;15.38;65.48
66035;HTU21D;52805;51.074;5.842;2022-07-06T02:38:24;15.37;65.62
66035;HTU21D;52805;51.074;5.842;2022-07-06T02:40:50;15.34;65.67
66035;HTU21D;52805;51.074;5.842;2022-07-06T02:43:16;15.30;65.78
66035;HTU21D;52805;51.074;5.842;2022-07-06T02:45:42;15.27;65.76
66035;HTU21D;52805;51.074;5.842;2022-07-06T02:48:09;15.24;65.88
66035;HTU21D;52805;51.074;5.842;2022-07-06T02:50:35;15.21;66.12
66035;HTU21D;52805;51.074;5.842;2022-07-06T02:53:01;15.17;66.38
66035;HTU21D;52805;51.074;5.842;2022-07-06T02:55:27;15.16;66.48
66035;HTU21D;52805;51.074;5.842;2022-07-06T02:57:54;15.16;66.41
66035;HTU21D;52805;51.074;5.842;2022-07-06T03:00:20;15.15;66.41
66035;HTU21D;52805;51.074;5.842;2022-07-06T03:02:46;15.14;66.37
66035;HTU21D;52805;51.074;5.842;2022-07-06T03:05:12;15.14;66.33
66035;HTU21D;52805;51.074;5.842;2022-07-06T03:07:38;15.12;66.43
66035;HTU21D;52805;51.074;5.842;2022-07-06T03:10:05;15.10;66.58
66035;HTU21D;52805;51.074;5.842;2022-07-06T03:12:31;15.10;66.72
66035;HTU21D;52805;51.074;5.842;2022-07-06T03:14:56;15.10;66.65
66035;HTU21D;52805;51.074;5.842;2022-07-06T03:17:22;15.08;66.65
66035;HTU21D;52805;51.074;5.842;2022-07-06T03:19:49;15.08;66.72
66035;HTU21D;52805;51.074;5.842;2022-07-06T03:22:15;15.04;66.82
66035;HTU21D;52805;51.074;5.842;2022-07-06T03:24:41;15.01;66.95
66035;HTU21D;52805;51.074;5.842;2022-07-06T03:27:08;15.02;66.98
66035;HTU21D;52805;51.074;5.842;2022-07-06T03:29:34;15.03;66.90
66035;HTU21D;52805;51.074;5.842;2022-07-06T03:32:00;15.01;66.85
66035;HTU21D;52805;51.074;5.842;2022-07-06T03:34:26;15.00;66.85
66035;HTU21D;52805;51.074;5.842;2022-07-06T03:36:52;14.98;66.95
66035;HTU21D;52805;51.074;5.842;2022-07-06T03:39:18;14.95;67.06
66035;HTU21D;52805;51.074;5.842;2022-07-06T03:41:44;14.94;67.17
66035;HTU21D;52805;51.074;5.842;2022-07-06T03:44:10;14.92;67.27
66035;HTU21D;52805;51.074;5.842;2022-07-06T03:46:36;14.87;67.45
66035;HTU21D;52805;51.074;5.842;2022-07-06T03:49:02;14.84;67.50
66035;HTU21D;52805;51.074;5.842;2022-07-06T03:51:28;14.83;67.58
66035;HTU21D;52805;51.074;5.842;2022-07-06T03:53:54;14.81;67.68
66035;HTU21D;52805;51.074;5.842;2022-07-06T03:56:20;14.79;67.90
66035;HTU21D;52805;51.074;5.842;2022-07-06T03:59:00;14.80;67.96
66035;HTU21D;52805;51.074;5.842;2022-07-06T04:01:30;14.82;68.03
66035;HTU21D;52805;51.074;5.842;2022-07-06T04:03:57;14.84;68.09
66035;HTU21D;52805;51.074;5.842;2022-07-06T04:06:24;14.86;68.11
66035;HTU21D;52805;51.074;5.842;2022-07-06T04:08:51;14.89;68.13
66035;HTU21D;52805;51.074;5.842;2022-07-06T04:11:17;14.89;68.12
66035;HTU21D;52805;51.074;5.842;2022-07-06T04:13:43;14.92;68.20
66035;HTU21D;52805;51.074;5.842;2022-07-06T04:16:09;14.93;68.13
66035;HTU21D;52805;51.074;5.842;2022-07-06T04:18:35;14.94;68.20
66035;HTU21D;52805;51.074;5.842;2022-07-06T04:21:02;14.94;68.24
66035;HTU21D;52805;51.074;5.842;2022-07-06T04:23:30;14.95;68.27
66035;HTU21D;52805;51.074;5.842;2022-07-06T04:25:57;14.96;68.33
66035;HTU21D;52805;51.074;5.842;2022-07-06T04:28:24;14.97;68.42
66035;HTU21D;52805;51.074;5.842;2022-07-06T04:30:50;14.98;68.42
66035;HTU21D;52805;51.074;5.842;2022-07-06T04:33:19;15.00;68.47
66035;HTU21D;52805;51.074;5.842;2022-07-06T04:35:46;15.04;68.49
66035;HTU21D;52805;51.074;5.842;2022-07-06T04:38:12;15.08;68.47
66035;HTU21D;52805;51.074;5.842;2022-07-06T04:40:38;15.10;68.55
66035;HTU21D;52805;51.074;5.842;2022-07-06T04:43:08;15.12;68.54
66035;HTU21D;52805;51.074;5.842;2022-07-06T04:45:34;15.13;68.50
66035;HTU21D;52805;51.074;5.842;2022-07-06T04:48:00;15.17;68.57
66035;HTU21D;52805;51.074;5.842;2022-07-06T04:50:26;15.19;68.53
66035;HTU21D;52805;51.074;5.842;2022-07-06T04:52:55;15.24;68.40
66035;HTU21D;52805;51.074;5.842;2022-07-06T04:55:21;15.28;68.46
66035;HTU21D;52805;51.074;5.842;2022-07-06T04:57:47;15.28;68.46
66035;HTU21D;52805;51.074;5.842;2022-07-06T05:00:16;15.32;68.38
66035;HTU21D;52805;51.074;5.842;2022-07-06T05:02:42;15.33;68.29
66035;HTU21D;52805;51.074;5.842;2022-07-06T05:05:08;15.39;68.23
66035;HTU21D;52805;51.074;5.842;2022-07-06T05:07:35;15.42;68.28
66035;HTU21D;52805;51.074;5.842;2022-07-06T05:10:07;15.47;68.23
66035;HTU21D;52805;51.074;5.842;2022-07-06T05:12:33;15.51;68.17
66035;HTU21D;52805;51.074;5.842;2022-07-06T05:14:58;15.56;67.93
66035;HTU21D;52805;51.074;5.842;2022-07-06T05:17:25;15.56;67.80
66035;HTU21D;52805;51.074;5.842;2022-07-06T05:19:51;15.59;67.73
66035;HTU21D;52805;51.074;5.842;2022-07-06T05:22:17;15.65;67.64
66035;HTU21D;52805;51.074;5.842;2022-07-06T05:24:45;15.69;67.61
66035;HTU21D;52805;51.074;5.842;2022-07-06T05:27:10;15.73;67.46
66035;HTU21D;52805;51.074;5.842;2022-07-06T05:29:36;15.83;67.40
66035;HTU21D;52805;51.074;5.842;2022-07-06T05:32:02;15.85;67.38
66035;HTU21D;52805;51.074;5.842;2022-07-06T05:34:28;15.90;67.36
66035;HTU21D;52805;51.074;5.842;2022-07-06T05:36:55;15.96;67.32
66035;HTU21D;52805;51.074;5.842;2022-07-06T05:39:20;15.98;67.27
66035;HTU21D;52805;51.074;5.842;2022-07-06T05:41:49;16.04;67.17
66035;HTU21D;52805;51.074;5.842;2022-07-06T05:44:15;16.04;67.27
66035;HTU21D;52805;51.074;5.842;2022-07-06T05:46:41;16.12;67.25
66035;HTU21D;52805;51.074;5.842;2022-07-06T05:49:07;16.18;67.27
66035;HTU21D;52805;51.074;5.842;2022-07-06T05:51:51;16.26;67.20
66035;HTU21D;52805;51.074;5.842;2022-07-06T05:54:19;16.32;67.01
66035;HTU21D;52805;51.074;5.842;2022-07-06T05:56:45;16.36;67.00
66035;HTU21D;52805;51.074;5.842;2022-07-06T05:59:12;16.43;66.83
66035;HTU21D;52805;51.074;5.842;2022-07-06T06:01:37;16.49;66.73
66035;HTU21D;52805;51.074;5.842;2022-07-06T06:04:10;16.55;66.53
66035;HTU21D;52805;51.074;5.842;2022-07-06T06:06:36;16.60;66.26
66035;HTU21D;52805;51.074;5.842;2022-07-06T06:09:02;16.67;66.07
66035;HTU21D;52805;51.074;5.842;2022-07-06T06:11:27;16.74;65.63
66035;HTU21D;52805;51.074;5.842;2022-07-06T06:13:54;16.82;65.33
66035;HTU21D;52805;51.074;5.842;2022-07-06T06:16:20;16.89;65.19
66035;HTU21D;52805;51.074;5.842;2022-07-06T06:18:46;16.91;65.03
66035;HTU21D;52805;51.074;5.842;2022-07-06T06:21:11;16.95;64.86
66035;HTU21D;52805;51.074;5.842;2022-07-06T06:23:37;16.99;64.79
66035;HTU21D;52805;51.074;5.842;2022-07-06T06:26:03;17.04;64.70
66035;HTU21D;52805;51.074;5.842;2022-07-06T06:28:29;17.07;64.58
66035;HTU21D;52805;51.074;5.842;2022-07-06T06:30:54;17.16;64.19
66035;HTU21D;52805;51.074;5.842;2022-07-06T06:33:20;17.18;64.03
66035;HTU21D;52805;51.074;5.842;2022-07-06T06:35:48;17.25;63.71
66035;HTU21D;52805;51.074;5.842;2022-07-06T06:38:16;17.25;63.75
66035;HTU21D;52805;51.074;5.842;2022-07-06T06:40:42;17.28;63.74
66035;HTU21D;52805;51.074;5.842;2022-07-06T06:43:09;17.30;63.41
66035;HTU21D;52805;51.074;5.842;2022-07-06T06:45:41;17.38;63.28
66035;HTU21D;52805;51.074;5.842;2022-07-06T06:48:07;17.41;63.34
66035;HTU21D;52805;51.074;5.842;2022-07-06T06:50:33;17.47;62.82
66035;HTU21D;52805;51.074;5.842;2022-07-06T06:52:58;17.51;62.49
66035;HTU21D;52805;51.074;5.842;2022-07-06T06:55:24;17.56;62.18
66035;HTU21D;52805;51.074;5.842;2022-07-06T06:57:50;17.56;61.90
66035;HTU21D;52805;51.074;5.842;2022-07-06T07:00:16;17.55;61.29
66035;HTU21D;52805;51.074;5.842;2022-07-06T07:02:41;17.56;61.71
66035;HTU21D;52805;51.074;5.842;2022-07-06T07:05:07;17.62;61.07
66035;HTU21D;52805;51.074;5.842;2022-07-06T07:07:33;17.63;60.64
66035;HTU21D;52805;51.074;5.842;2022-07-06T07:09:59;17.66;60.33
66035;HTU21D;52805;51.074;5.842;2022-07-06T07:12:25;17.72;59.62
66035;HTU21D;52805;51.074;5.842;2022-07-06T07:14:50;17.77;59.33
66035;HTU21D;52805;51.074;5.842;2022-07-06T07:17:16;17.75;59.16
66035;HTU21D;52805;51.074;5.842;2022-07-06T07:19:42;17.81;58.91
66035;HTU21D;52805;51.074;5.842;2022-07-06T07:22:08;17.81;56.82
66035;HTU21D;52805;51.074;5.842;2022-07-06T07:24:33;17.84;58.39
66035;HTU21D;52805;51.074;5.842;2022-07-06T07:26:59;17.89;58.66
66035;HTU21D;52805;51.074;5.842;2022-07-06T07:29:25;17.94;57.91
66035;HTU21D;52805;51.074;5.842;2022-07-06T07:31:51;18.06;57.05
66035;HTU21D;52805;51.074;5.842;2022-07-06T07:34:17;18.07;56.93
66035;HTU21D;52805;51.074;5.842;2022-07-06T07:36:42;18.17;56.61
66035;HTU21D;52805;51.074;5.842;2022-07-06T07:39:08;18.25;56.29
66035;HTU21D;52805;51.074;5.842;2022-07-06T07:41:34;18.33;55.87
66035;HTU21D;52805;51.074;5.842;2022-07-06T07:43:59;18.40;54.62
66035;HTU21D;52805;51.074;5.842;2022-07-06T07:46:25;18.41;53.68
66035;HTU21D;52805;51.074;5.842;2022-07-06T07:48:51;18.46;55.17
66035;HTU21D;52805;51.074;5.842;2022-07-06T07:51:18;18.57;54.93
66035;HTU21D;52805;51.074;5.842;2022-07-06T07:53:44;18.63;54.00
66035;HTU21D;52805;51.074;5.842;2022-07-06T07:56:10;18.69;54.44
66035;HTU21D;52805;51.074;5.842;2022-07-06T07:58:36;18.78;54.41
66035;HTU21D;52805;51.074;5.842;2022-07-06T08:01:02;18.86;54.00
66035;HTU21D;52805;51.074;5.842;2022-07-06T08:03:30;19.02;53.95
66035;HTU21D;52805;51.074;5.842;2022-07-06T08:05:57;19.16;53.66
66035;HTU21D;52805;51.074;5.842;2022-07-06T08:08:23;19.37;52.76
66035;HTU21D;52805;51.074;5.842;2022-07-06T08:10:48;19.43;51.85
66035;HTU21D;52805;51.074;5.842;2022-07-06T08:13:14;19.47;52.12
66035;HTU21D;52805;51.074;5.842;2022-07-06T08:15:40;19.58;49.53
66035;HTU21D;52805;51.074;5.842;2022-07-06T08:18:06;19.61;50.96
66035;HTU21D;52805;51.074;5.842;2022-07-06T08:20:32;19.63;51.03
66035;HTU21D;52805;51.074;5.842;2022-07-06T08:22:58;19.73;51.08
66035;HTU21D;52805;51.074;5.842;2022-07-06T08:25:23;19.76;50.93
66035;HTU21D;52805;51.074;5.842;2022-07-06T08:27:49;19.73;50.94
66035;HTU21D;52805;51.074;5.842;2022-07-06T08:30:15;19.75;51.27
66035;HTU21D;52805;51.074;5.842;2022-07-06T08:32:42;19.89;51.00
66035;HTU21D;52805;51.074;5.842;2022-07-06T08:35:08;20.07;49.83
66035;HTU21D;52805;51.074;5.842;2022-07-06T08:37:34;20.18;49.54
66035;HTU21D;52805;51.074;5.842;2022-07-06T08:40:01;20.25;48.87
66035;HTU21D;52805;51.074;5.842;2022-07-06T08:42:31;20.40;49.01
66035;HTU21D;52805;51.074;5.842;2022-07-06T08:45:03;20.55;48.66
66035;HTU21D;52805;51.074;5.842;2022-07-06T08:47:30;20.61;48.68
66035;HTU21D;52805;51.074;5.842;2022-07-06T08:49:56;20.59;48.84
66035;HTU21D;52805;51.074;5.842;2022-07-06T08:52:24;20.60;48.86
66035;HTU21D;52805;51.074;5.842;2022-07-06T08:54:50;20.68;48.54
66035;HTU21D;52805;51.074;5.842;2022-07-06T08:57:17;20.69;48.15
66035;HTU21D;52805;51.074;5.842;2022-07-06T08:59:44;20.70;48.15
66035;HTU21D;52805;51.074;5.842;2022-07-06T09:02:10;20.66;48.00
66035;HTU21D;52805;51.074;5.842;2022-07-06T09:04:37;20.65;47.89
66035;HTU21D;52805;51.074;5.842;2022-07-06T09:07:03;20.53;47.93
66035;HTU21D;52805;51.074;5.842;2022-07-06T09:09:30;20.57;47.97
66035;HTU21D;52805;51.074;5.842;2022-07-06T09:11:56;20.65;47.48
66035;HTU21D;52805;51.074;5.842;2022-07-06T09:14:22;20.74;47.42
66035;HTU21D;52805;51.074;5.842;2022-07-06T09:16:52;20.86;46.80
66035;HTU21D;52805;51.074;5.842;2022-07-06T09:19:18;21.00;46.49
66035;HTU21D;52805;51.074;5.842;2022-07-06T09:21:44;21.11;45.70
66035;HTU21D;52805;51.074;5.842;2022-07-06T09:24:11;21.21;45.32
66035;HTU21D;52805;51.074;5.842;2022-07-06T09:26:39;21.31;44.63
66035;HTU21D;52805;51.074;5.842;2022-07-06T09:29:06;21.40;45.09
66035;HTU21D;52805;51.074;5.842;2022-07-06T09:31:32;21.50;43.18
66035;HTU21D;52805;51.074;5.842;2022-07-06T09:34:02;21.57;44.16
66035;HTU21D;52805;51.074;5.842;2022-07-06T09:41:42;21.91;43.28
66035;HTU21D;52805;51.074;5.842;2022-07-06T09:44:09;21.89;43.25
66035;HTU21D;52805;51.074;5.842;2022-07-06T09:46:46;21.93;43.38
66035;HTU21D;52805;51.074;5.842;2022-07-06T09:49:12;22.01;42.95
66035;HTU21D;52805;51.074;5.842;2022-07-06T09:51:38;21.96;43.23
66035;HTU21D;52805;51.074;5.842;2022-07-06T09:54:08;21.95;43.40
66035;HTU21D;52805;51.074;5.842;2022-07-06T09:56:41;22.08;43.16
66035;HTU21D;52805;51.074;5.842;2022-07-06T09:59:11;22.24;42.76
66035;HTU21D;52805;51.074;5.842;2022-07-06T10:01:38;22.39;42.36
66035;HTU21D;52805;51.074;5.842;2022-07-06T10:04:09;22.53;42.21
66035;HTU21D;52805;51.074;5.842;2022-07-06T10:06:35;22.75;41.62
66035;HTU21D;52805;51.074;5.842;2022-07-06T10:09:06;22.85;40.79
66035;HTU21D;52805;51.074;5.842;2022-07-06T10:11:34;22.92;39.68
66035;HTU21D;52805;51.074;5.842;2022-07-06T10:14:06;22.84;40.50
66035;HTU21D;52805;51.074;5.842;2022-07-06T10:16:38;22.85;40.67
66035;HTU21D;52805;51.074;5.842;2022-07-06T10:19:08;22.90;40.39
66035;HTU21D;52805;51.074;5.842;2022-07-06T10:21:39;22.97;40.37
66035;HTU21D;52805;51.074;5.842;2022-07-06T10:24:07;23.02;40.01
66035;HTU21D;52805;51.074;5.842;2022-07-06T10:26:35;22.90;40.29
66035;HTU21D;52805;51.074;5.842;2022-07-06T10:29:02;22.90;40.13
66035;HTU21D;52805;51.074;5.842;2022-07-06T10:31:30;22.88;40.30
66035;HTU21D;52805;51.074;5.842;2022-07-06T10:33:57;22.81;40.04
66035;HTU21D;52805;51.074;5.842;2022-07-06T10:36:25;22.82;40.13
66035;HTU21D;52805;51.074;5.842;2022-07-06T10:38:52;22.83;40.17
66035;HTU21D;52805;51.074;5.842;2022-07-06T10:41:18;22.93;38.59
66035;HTU21D;52805;51.074;5.842;2022-07-06T10:43:55;22.85;39.88
66035;HTU21D;52805;51.074;5.842;2022-07-06T10:46:22;22.95;39.77
66035;HTU21D;52805;51.074;5.842;2022-07-06T10:48:49;23.07;38.99
66035;HTU21D;52805;51.074;5.842;2022-07-06T10:51:29;23.06;39.55
66035;HTU21D;52805;51.074;5.842;2022-07-06T10:54:00;23.07;39.51
66035;HTU21D;52805;51.074;5.842;2022-07-06T10:56:39;23.11;39.39
66035;HTU21D;52805;51.074;5.842;2022-07-06T10:59:13;23.22;39.20
66035;HTU21D;52805;51.074;5.842;2022-07-06T11:01:39;23.32;38.90
66035;HTU21D;52805;51.074;5.842;2022-07-06T11:04:07;23.31;38.95
66035;HTU21D;52805;51.074;5.842;2022-07-06T11:06:39;23.34;38.88
66035;HTU21D;52805;51.074;5.842;2022-07-06T11:09:09;23.31;38.85
66035;HTU21D;52805;51.074;5.842;2022-07-06T11:16:34;23.44;38.90
66035;HTU21D;52805;51.074;5.842;2022-07-06T11:19:16;23.40;38.76
66035;HTU21D;52805;51.074;5.842;2022-07-06T11:21:50;23.37;39.01
66035;HTU21D;52805;51.074;5.842;2022-07-06T11:24:22;23.41;39.15
66035;HTU21D;52805;51.074;5.842;2022-07-06T11:26:51;23.42;39.20
66035;HTU21D;52805;51.074;5.842;2022-07-06T11:29:19;23.53;38.88
66035;HTU21D;52805;51.074;5.842;2022-07-06T11:31:51;23.51;39.10
66035;HTU21D;52805;51.074;5.842;2022-07-06T11:34:23;23.64;39.05
66035;HTU21D;52805;51.074;5.842;2022-07-06T11:36:56;23.73;38.45
66035;HTU21D;52805;51.074;5.842;2022-07-06T11:39:25;23.81;38.89
66035;HTU21D;52805;51.074;5.842;2022-07-06T11:41:51;23.89;38.67
66035;HTU21D;52805;51.074;5.842;2022-07-06T11:44:17;23.98;38.47
66035;HTU21D;52805;51.074;5.842;2022-07-06T11:46:44;24.06;38.51
66035;HTU21D;52805;51.074;5.842;2022-07-06T11:49:10;24.17;38.27
66035;HTU21D;52805;51.074;5.842;2022-07-06T11:51:39;24.25;38.04
66035;HTU21D;52805;51.074;5.842;2022-07-06T11:54:14;24.26;37.96
66035;HTU21D;52805;51.074;5.842;2022-07-06T11:56:59;24.31;37.93
66035;HTU21D;52805;51.074;5.842;2022-07-06T11:59:34;24.35;37.57
66035;HTU21D;52805;51.074;5.842;2022-07-06T12:02:04;24.38;37.26
66035;HTU21D;52805;51.074;5.842;2022-07-06T12:04:32;24.25;37.16
66035;HTU21D;52805;51.074;5.842;2022-07-06T12:07:03;24.15;37.57
66035;HTU21D;52805;51.074;5.842;2022-07-06T12:09:34;24.20;37.85
66035;HTU21D;52805;51.074;5.842;2022-07-06T12:12:01;24.25;37.76
66035;HTU21D;52805;51.074;5.842;2022-07-06T12:14:30;24.23;37.82
66035;HTU21D;52805;51.074;5.842;2022-07-06T12:16:56;24.17;38.01
66035;HTU21D;52805;51.074;5.842;2022-07-06T12:19:22;24.11;38.00
66035;HTU21D;52805;51.074;5.842;2022-07-06T12:21:51;24.09;37.91
66035;HTU21D;52805;51.074;5.842;2022-07-06T12:24:23;24.05;38.16
66035;HTU21D;52805;51.074;5.842;2022-07-06T12:26:50;24.05;37.83
66035;HTU21D;52805;51.074;5.842;2022-07-06T12:29:16;24.02;37.85
66035;HTU21D;52805;51.074;5.842;2022-07-06T12:31:54;24.02;37.85
66035;HTU21D;52805;51.074;5.842;2022-07-06T12:34:26;24.13;37.80
66035;HTU21D;52805;51.074;5.842;2022-07-06T12:36:58;24.29;37.58
66035;HTU21D;52805;51.074;5.842;2022-07-06T12:39:26;24.38;37.47
66035;HTU21D;52805;51.074;5.842;2022-07-06T12:42:01;24.45;37.43
66035;HTU21D;52805;51.074;5.842;2022-07-06T12:44:28;24.49;37.30
66035;HTU21D;52805;51.074;5.842;2022-07-06T12:47:06;24.59;36.72
66035;HTU21D;52805;51.074;5.842;2022-07-06T12:49:33;24.63;36.56
66035;HTU21D;52805;51.074;5.842;2022-07-06T12:52:10;24.76;36.26
66035;HTU21D;52805;51.074;5.842;2022-07-06T12:54:43;24.87;36.24
66035;HTU21D;52805;51.074;5.842;2022-07-06T12:57:12;24.89;36.04
66035;HTU21D;52805;51.074;5.842;2022-07-06T13:05:03;25.10;36.11
66035;HTU21D;52805;51.074;5.842;2022-07-06T13:07:31;25.22;36.02
66035;HTU21D;52805;51.074;5.842;2022-07-06T13:09:58;25.31;35.82
66035;HTU21D;52805;51.074;5.842;2022-07-06T13:12:24;25.35;35.82
66035;HTU21D;52805;51.074;5.842;2022-07-06T13:14:51;25.43;35.82
66035;HTU21D;52805;51.074;5.842;2022-07-06T13:17:17;25.50;35.79
66035;HTU21D;52805;51.074;5.842;2022-07-06T13:19:43;25.57;35.53
66035;HTU21D;52805;51.074;5.842;2022-07-06T13:22:08;25.49;34.49
66035;HTU21D;52805;51.074;5.842;2022-07-06T13:24:34;25.39;34.98
66035;HTU21D;52805;51.074;5.842;2022-07-06T13:27:00;25.35;35.22
66035;HTU21D;52805;51.074;5.842;2022-07-06T13:29:27;25.48;35.34
66035;HTU21D;52805;51.074;5.842;2022-07-06T13:31:53;25.50;35.10
66035;HTU21D;52805;51.074;5.842;2022-07-06T13:34:19;25.51;35.14
66035;HTU21D;52805;51.074;5.842;2022-07-06T13:36:45;25.52;35.06
66035;HTU21D;52805;51.074;5.842;2022-07-06T13:39:10;25.58;34.73
66035;HTU21D;52805;51.074;5.842;2022-07-06T13:41:36;25.68;35.06
66035;HTU21D;52805;51.074;5.842;2022-07-06T13:44:02;25.91;34.73
66035;HTU21D;52805;51.074;5.842;2022-07-06T13:46:30;26.03;34.52
66035;HTU21D;52805;51.074;5.842;2022-07-06T13:48:56;26.15;34.15
66035;HTU21D;52805;51.074;5.842;2022-07-06T13:51:23;26.13;33.98
66035;HTU21D;52805;51.074;5.842;2022-07-06T13:53:50;26.19;33.42
66035;HTU21D;52805;51.074;5.842;2022-07-06T13:56:16;26.12;33.63
66035;HTU21D;52805;51.074;5.842;2022-07-06T13:58:42;26.18;33.65
66035;HTU21D;52805;51.074;5.842;2022-07-06T14:01:08;26.21;33.49
66035;HTU21D;52805;51.074;5.842;2022-07-06T14:03:34;26.34;33.17
66035;HTU21D;52805;51.074;5.842;2022-07-06T14:06:03;26.38;33.11
66035;HTU21D;52805;51.074;5.842;2022-07-06T14:08:29;26.40;32.89
66035;HTU21D;52805;51.074;5.842;2022-07-06T14:10:56;26.38;32.96
66035;HTU21D;52805;51.074;5.842;2022-07-06T14:13:23;26.36;32.81
66035;HTU21D;52805;51.074;5.842;2022-07-06T14:15:49;26.33;32.80
66035;HTU21D;52805;51.074;5.842;2022-07-06T14:18:15;26.35;33.03
66035;HTU21D;52805;51.074;5.842;2022-07-06T14:20:44;26.43;33.05
66035;HTU21D;52805;51.074;5.842;2022-07-06T14:23:10;26.54;33.05
66035;HTU21D;52805;51.074;5.842;2022-07-06T14:25:37;26.70;33.08
66035;HTU21D;52805;51.074;5.842;2022-07-06T14:28:03;26.86;33.13
66035;HTU21D;52805;51.074;5.842;2022-07-06T14:30:28;26.80;33.00
66035;HTU21D;52805;51.074;5.842;2022-07-06T14:32:54;26.79;33.13
66035;HTU21D;52805;51.074;5.842;2022-07-06T14:35:20;26.84;33.24
66035;HTU21D;52805;51.074;5.842;2022-07-06T14:37:47;26.91;33.11
66035;HTU21D;52805;51.074;5.842;2022-07-06T14:40:13;26.93;32.93
66035;HTU21D;52805;51.074;5.842;2022-07-06T14:42:38;26.93;33.12
66035;HTU21D;52805;51.074;5.842;2022-07-06T14:45:05;26.99;33.05
66035;HTU21D;52805;51.074;5.842;2022-07-06T14:47:34;27.02;32.94
66035;HTU21D;52805;51.074;5.842;2022-07-06T14:50:02;27.11;32.96
66035;HTU21D;52805;51.074;5.842;2022-07-06T14:52:28;27.26;32.96
66035;HTU21D;52805;51.074;5.842;2022-07-06T14:54:54;27.43;32.76
66035;HTU21D;52805;51.074;5.842;2022-07-06T14:57:19;27.43;32.35
66035;HTU21D;52805;51.074;5.842;2022-07-06T14:59:45;27.42;32.31
66035;HTU21D;52805;51.074;5.842;2022-07-06T15:02:11;27.28;32.15
66035;HTU21D;52805;51.074;5.842;2022-07-06T15:04:37;27.15;32.63
66035;HTU21D;52805;51.074;5.842;2022-07-06T15:07:03;27.22;32.66
66035;HTU21D;52805;51.074;5.842;2022-07-06T15:09:28;27.30;32.71
66035;HTU21D;52805;51.074;5.842;2022-07-06T15:11:56;27.44;32.67
66035;HTU21D;52805;51.074;5.842;2022-07-06T15:14:22;27.57;32.19
66035;HTU21D;52805;51.074;5.842;2022-07-06T15:16:48;27.58;32.07
66035;HTU21D;52805;51.074;5.842;2022-07-06T15:19:14;27.45;32.19
66035;HTU21D;52805;51.074;5.842;2022-07-06T15:21:40;27.36;32.24
66035;HTU21D;52805;51.074;5.842;2022-07-06T15:24:06;27.16;32.43
66035;HTU21D;52805;51.074;5.842;2022-07-06T15:26:32;27.11;32.76
66035;HTU21D;52805;51.074;5.842;2022-07-06T15:28:58;27.10;32.76
66035;HTU21D;52805;51.074;5.842;2022-07-06T15:31:23;27.02;32.79